createdAt,value
2023-04-13T00:00:50.896Z,10.56
2023-04-13T00:03:18.759Z,10.16
2023-04-13T00:05:46.860Z,9.84
2023-04-13T00:08:14.685Z,9.78
2023-04-13T00:10:42.357Z,9.64
2023-04-13T00:13:11.213Z,9.85
2023-04-13T00:15:42.041Z,9.64
2023-04-13T00:18:11.367Z,9.84
2023-04-13T00:20:39.208Z,10.09
2023-04-13T00:23:06.832Z,9.62
2023-04-13T00:25:34.382Z,10.09
2023-04-13T00:28:02.144Z,9.96
2023-04-13T00:30:30.192Z,9.96
2023-04-13T00:32:57.864Z,10.14
2023-04-13T00:35:26.904Z,9.89
2023-04-13T00:37:54.520Z,9.93
2023-04-13T00:40:22.293Z,10.22
2023-04-13T00:42:50.828Z,9.79
2023-04-13T00:45:20.236Z,9.81
2023-04-13T00:47:50.441Z,9.78
2023-04-13T00:50:20.300Z,9.64
2023-04-13T00:52:49.531Z,9.93
2023-04-13T00:55:17.434Z,9.94
2023-04-13T00:57:45.272Z,9.74
2023-04-13T01:00:13.386Z,9.76
2023-04-13T01:02:40.992Z,9.82
2023-04-13T01:05:09.443Z,9.87
2023-04-13T01:07:48.953Z,9.85
2023-04-13T01:10:24.890Z,9.90
2023-04-13T01:13:04.035Z,9.49
2023-04-13T01:15:36.375Z,9.49
2023-04-13T01:18:08.418Z,9.41
2023-04-13T01:20:40.763Z,9.35
2023-04-13T01:23:18.474Z,9.02
2023-04-13T01:25:55.915Z,8.87
2023-04-13T01:28:26.238Z,8.78
2023-04-13T01:30:54.637Z,8.75
2023-04-13T01:33:22.956Z,8.78
2023-04-13T01:35:51.792Z,8.71
2023-04-13T01:38:23.540Z,8.66
2023-04-13T01:40:52.015Z,8.55
2023-04-13T01:43:20.828Z,8.42
2023-04-13T01:45:58.574Z,8.43
2023-04-13T01:48:32.165Z,8.34
2023-04-13T01:51:07.017Z,8.35
2023-04-13T01:53:39.999Z,8.46
2023-04-13T01:56:09.321Z,8.52
2023-04-13T01:58:38.059Z,8.56
2023-04-13T02:01:07.497Z,8.63
2023-04-13T02:03:35.337Z,8.61
2023-04-13T02:06:03.051Z,8.65
2023-04-13T02:08:32.446Z,8.71
2023-04-13T02:11:01.396Z,8.64
2023-04-13T02:13:29.134Z,8.62
2023-04-13T02:15:58.022Z,8.57
2023-04-13T02:18:27.475Z,8.54
2023-04-13T02:21:02.838Z,8.41
2023-04-13T02:23:31.186Z,8.57
2023-04-13T02:25:59.044Z,8.54
2023-04-13T02:28:27.178Z,8.57
2023-04-13T02:30:55.080Z,8.59
2023-04-13T02:33:22.972Z,8.71
2023-04-13T02:35:51.991Z,8.82
2023-04-13T02:38:19.616Z,8.75
2023-04-13T02:40:47.408Z,8.46
2023-04-13T02:43:15.678Z,8.71
2023-04-13T02:45:43.385Z,8.84
2023-04-13T02:48:11.036Z,8.98
2023-04-13T02:50:38.869Z,8.76
2023-04-13T02:53:07.874Z,8.77
2023-04-13T02:55:35.563Z,8.79
2023-04-13T02:58:03.340Z,8.85
2023-04-13T03:00:31.051Z,8.97
2023-04-13T03:02:59.075Z,9.05
2023-04-13T03:05:26.711Z,8.92
2023-04-13T03:07:54.353Z,8.65
2023-04-13T03:10:23.522Z,8.71
2023-04-13T03:12:51.162Z,8.72
2023-04-13T03:15:19.098Z,8.57
2023-04-13T03:17:46.881Z,8.93
2023-04-13T03:20:14.610Z,8.52
2023-04-13T03:22:42.738Z,8.59
2023-04-13T03:25:10.385Z,8.99
2023-04-13T03:27:39.318Z,9.23
2023-04-13T03:30:08.039Z,9.12
2023-04-13T03:32:35.871Z,9.08
2023-04-13T03:35:03.696Z,9.31
2023-04-13T03:37:31.340Z,9.19
2023-04-13T03:40:00.791Z,9.40
2023-04-13T03:42:28.355Z,9.05
2023-04-13T03:44:57.622Z,8.84
2023-04-13T03:47:25.456Z,8.75
2023-04-13T03:49:53.072Z,8.51
2023-04-13T03:52:20.909Z,8.23
2023-04-13T03:54:48.582Z,8.27
2023-04-13T03:57:23.769Z,8.06
2023-04-13T03:59:51.459Z,7.81
2023-04-13T04:02:20.928Z,8.24
2023-04-13T04:04:48.966Z,8.29
2023-04-13T04:07:17.038Z,7.74
2023-04-13T04:09:44.923Z,7.74
2023-04-13T04:12:14.653Z,8.07
2023-04-13T04:14:44.904Z,7.89
2023-04-13T04:17:14.147Z,8.29
2023-04-13T04:19:43.359Z,8.20
2023-04-13T04:22:12.310Z,8.57
2023-04-13T04:24:39.957Z,8.79
2023-04-13T04:27:07.785Z,8.89
2023-04-13T04:29:35.602Z,8.10
2023-04-13T04:32:04.529Z,8.34
2023-04-13T04:34:32.314Z,8.80
2023-04-13T04:37:03.531Z,8.99
2023-04-13T04:39:33.591Z,8.79
2023-04-13T04:42:01.309Z,8.30
2023-04-13T04:44:29.230Z,8.46
2023-04-13T04:46:57.532Z,8.56
2023-04-13T04:49:25.498Z,7.93
2023-04-13T04:51:53.082Z,8.09
2023-04-13T04:54:22.122Z,8.02
2023-04-13T04:56:50.524Z,7.92
2023-04-13T04:59:18.229Z,7.68
2023-04-13T05:01:46.466Z,7.65
2023-04-13T05:04:14.232Z,7.92
2023-04-13T05:06:41.851Z,7.63
2023-04-13T05:09:09.526Z,7.58
2023-04-13T05:11:40.907Z,7.53
2023-04-13T05:14:08.624Z,7.31
2023-04-13T05:16:36.314Z,7.47
2023-04-13T05:19:04.023Z,7.53
2023-04-13T05:21:34.393Z,7.60
2023-04-13T05:24:02.122Z,7.55
2023-04-13T05:26:30.182Z,7.61
2023-04-13T05:28:59.400Z,7.59
2023-04-13T05:31:27.251Z,7.58
2023-04-13T05:33:54.981Z,7.59
2023-04-13T05:36:22.631Z,7.50
2023-04-13T05:38:50.277Z,7.53
2023-04-13T05:41:17.891Z,7.51
2023-04-13T05:43:45.540Z,7.56
2023-04-13T05:46:20.255Z,7.69
2023-04-13T05:48:48.086Z,7.61
2023-04-13T05:51:15.749Z,7.66
2023-04-13T05:53:43.395Z,7.82
2023-04-13T05:56:10.969Z,7.93
2023-04-13T05:58:38.724Z,8.05
2023-04-13T06:01:07.075Z,7.90
2023-04-13T06:03:37.209Z,8.41
2023-04-13T06:06:05.806Z,8.39
2023-04-13T06:08:33.391Z,8.40
2023-04-13T06:11:01.240Z,8.45
2023-04-13T06:13:28.814Z,8.63
2023-04-13T06:15:57.318Z,8.38
2023-04-13T06:18:25.279Z,8.51
2023-04-13T06:20:54.567Z,8.51
2023-04-13T06:23:22.213Z,8.48
2023-04-13T06:25:51.699Z,8.42
2023-04-13T06:28:19.610Z,8.28
2023-04-13T06:30:47.173Z,8.33
2023-04-13T06:33:14.834Z,8.35
2023-04-13T06:35:42.420Z,8.40
2023-04-13T06:38:11.356Z,8.36
2023-04-13T06:40:38.945Z,8.34
2023-04-13T06:43:13.330Z,8.22
2023-04-13T06:45:48.218Z,8.54
2023-04-13T06:48:15.817Z,8.59
2023-04-13T06:50:43.356Z,8.47
2023-04-13T06:53:12.373Z,8.26
2023-04-13T06:55:40.035Z,8.43
2023-04-13T06:58:07.986Z,8.29
2023-04-13T07:00:38.641Z,8.29
2023-04-13T07:03:07.454Z,8.27
2023-04-13T07:05:35.190Z,8.58
2023-04-13T07:08:02.852Z,8.71
2023-04-13T07:10:31.826Z,8.84
2023-04-13T07:12:59.549Z,8.96
2023-04-13T07:15:29.575Z,9.14
2023-04-13T07:17:57.485Z,8.96
2023-04-13T07:20:25.146Z,8.97
2023-04-13T07:22:52.776Z,8.96
2023-04-13T07:25:20.375Z,9.07
2023-04-13T07:27:49.301Z,10.82
2023-04-13T07:30:17.754Z,10.98
2023-04-13T07:32:45.566Z,10.73
2023-04-13T07:35:13.226Z,10.20
2023-04-13T07:37:40.797Z,9.71
2023-04-13T07:40:10.354Z,9.91
2023-04-13T07:42:38.658Z,9.99
2023-04-13T07:45:08.830Z,11.42
2023-04-13T07:47:36.639Z,11.85
2023-04-13T07:50:05.526Z,11.78
2023-04-13T07:52:33.431Z,11.27
2023-04-13T07:55:02.381Z,11.65
2023-04-13T07:57:29.971Z,11.15
2023-04-13T07:59:57.630Z,11.53
2023-04-13T08:02:26.699Z,11.24
2023-04-13T08:04:54.571Z,10.91
2023-04-13T08:07:22.316Z,9.89
2023-04-13T08:09:49.937Z,9.56
2023-04-13T08:12:17.763Z,9.93
2023-04-13T08:14:45.428Z,9.11
2023-04-13T08:17:13.284Z,9.38
2023-04-13T08:19:44.292Z,11.12
2023-04-13T08:22:11.825Z,10.74
2023-04-13T08:24:39.385Z,10.00
2023-04-13T08:27:07.248Z,10.46
2023-04-13T08:29:34.828Z,10.15
2023-04-13T08:32:02.441Z,9.94
2023-04-13T08:34:31.646Z,10.08
2023-04-13T08:37:00.762Z,10.10
2023-04-13T08:39:28.583Z,10.39
2023-04-13T08:41:56.751Z,10.09
2023-04-13T08:44:25.055Z,10.60
2023-04-13T08:46:53.466Z,10.71
2023-04-13T08:49:21.192Z,10.80
2023-04-13T08:51:50.559Z,11.45
2023-04-13T08:54:22.207Z,10.32
2023-04-13T08:56:55.282Z,10.81
2023-04-13T08:59:27.811Z,10.68
2023-04-13T09:01:58.713Z,10.89
2023-04-13T09:04:36.257Z,11.20
2023-04-13T09:07:05.058Z,10.88
2023-04-13T09:09:38.663Z,10.59
2023-04-13T09:12:06.328Z,10.45
2023-04-13T09:14:35.381Z,10.74
2023-04-13T09:17:04.626Z,10.28
2023-04-13T09:19:35.198Z,10.66
2023-04-13T09:22:12.512Z,10.46
2023-04-13T09:24:42.646Z,10.90
2023-04-13T09:27:18.870Z,10.60
2023-04-13T09:29:51.609Z,10.65
2023-04-13T09:32:20.863Z,10.90
2023-04-13T09:35:00.347Z,10.78
2023-04-13T09:37:27.895Z,10.67
2023-04-13T09:40:07.523Z,10.14
2023-04-13T09:42:38.017Z,10.16
2023-04-13T09:45:07.171Z,10.96
2023-04-13T09:47:35.734Z,10.11
2023-04-13T09:50:03.888Z,9.98
2023-04-13T09:52:31.527Z,10.36
2023-04-13T09:55:00.626Z,10.12
2023-04-13T09:57:30.759Z,9.82
2023-04-13T09:59:59.702Z,9.76
2023-04-13T10:02:28.516Z,9.37
2023-04-13T10:04:57.560Z,9.09
2023-04-13T10:07:25.393Z,9.02
2023-04-13T10:09:53.296Z,9.22
2023-04-13T10:12:27.628Z,9.73
2023-04-13T10:15:03.861Z,10.44
2023-04-13T10:17:48.677Z,10.93
2023-04-13T10:20:18.252Z,11.06
2023-04-13T10:22:47.426Z,10.10
2023-04-13T10:25:31.430Z,9.73
2023-04-13T10:28:02.118Z,9.99
2023-04-13T10:30:29.927Z,10.02
2023-04-13T10:33:09.065Z,10.23
2023-04-13T10:35:38.215Z,9.54
2023-04-13T10:38:06.618Z,9.35
2023-04-13T10:40:44.388Z,9.40
2023-04-13T10:43:24.305Z,9.88
2023-04-13T10:46:18.602Z,9.46
2023-04-13T10:48:54.507Z,9.56
2023-04-13T10:51:22.149Z,10.04
2023-04-13T10:53:50.238Z,9.86
2023-04-13T10:56:18.879Z,9.16
2023-04-13T10:58:54.409Z,9.76
2023-04-13T11:01:23.149Z,10.16
2023-04-13T11:04:03.133Z,10.25
2023-04-13T11:06:35.872Z,9.82
2023-04-13T11:09:04.282Z,9.91
2023-04-13T11:11:32.750Z,10.16
2023-04-13T11:14:01.759Z,9.36
2023-04-13T11:16:29.547Z,9.40
2023-04-13T11:19:06.109Z,9.74
2023-04-13T11:21:33.858Z,9.56
2023-04-13T11:24:01.445Z,10.35
2023-04-13T11:26:32.458Z,9.88
2023-04-13T11:29:02.535Z,10.62
2023-04-13T11:31:37.518Z,10.98
2023-04-13T11:34:07.273Z,10.71
2023-04-13T11:36:35.760Z,10.94
2023-04-13T11:39:03.615Z,11.12
2023-04-13T11:41:31.239Z,10.92
2023-04-13T11:44:01.919Z,10.90
2023-04-13T11:46:29.585Z,10.26
2023-04-13T11:48:59.249Z,10.32
2023-04-13T11:51:27.595Z,10.78
2023-04-13T11:53:55.896Z,10.27
2023-04-13T11:56:23.633Z,10.12
2023-04-13T11:58:51.902Z,11.11
2023-04-13T12:01:26.624Z,11.28
2023-04-13T12:04:12.877Z,10.85
2023-04-13T12:06:46.778Z,10.93
2023-04-13T12:09:18.087Z,10.52
2023-04-13T12:11:50.543Z,10.53
2023-04-13T12:14:47.093Z,9.92
2023-04-13T12:17:34.682Z,10.09
2023-04-13T12:20:04.008Z,10.49
2023-04-13T12:22:51.469Z,10.76
2023-04-13T12:25:25.405Z,10.39
2023-04-13T12:27:53.753Z,11.21
2023-04-13T12:30:23.300Z,11.87
2023-04-13T12:32:55.620Z,12.39
2023-04-13T12:35:23.694Z,12.68
2023-04-13T12:37:51.376Z,12.36
2023-04-13T12:40:19.065Z,12.66
2023-04-13T12:42:48.016Z,12.60
2023-04-13T12:45:16.427Z,11.90
2023-04-13T12:47:47.127Z,12.40
2023-04-13T12:50:18.537Z,11.87
2023-04-13T12:52:46.129Z,12.48
2023-04-13T12:55:13.774Z,11.99
2023-04-13T12:57:41.368Z,12.14
2023-04-13T13:00:09.997Z,12.93
2023-04-13T13:02:38.304Z,12.29
2023-04-13T13:05:07.206Z,11.28
2023-04-13T13:07:38.752Z,10.99
2023-04-13T13:10:22.098Z,11.77
2023-04-13T13:12:56.156Z,10.84
2023-04-13T13:15:23.779Z,11.91
2023-04-13T13:17:51.348Z,12.22
2023-04-13T13:20:18.933Z,11.47
2023-04-13T13:22:47.997Z,12.03
2023-04-13T13:25:15.627Z,12.57
2023-04-13T13:28:10.289Z,12.16
2023-04-13T13:30:31.055Z,12.42
2023-04-13T13:33:00.057Z,12.34
2023-04-13T13:35:27.773Z,12.11
2023-04-13T13:37:57.114Z,12.59
2023-04-13T13:40:24.893Z,11.15
2023-04-13T13:42:53.108Z,11.90
2023-04-13T13:45:21.486Z,11.99
2023-04-13T13:47:53.796Z,12.06
2023-04-13T13:50:21.978Z,12.93
2023-04-13T13:53:02.461Z,13.07
2023-04-13T13:55:32.494Z,12.50
2023-04-13T13:58:02.404Z,13.20
2023-04-13T14:00:30.502Z,13.22
2023-04-13T14:03:00.271Z,13.46
2023-04-13T14:05:28.267Z,14.66
2023-04-13T14:07:55.830Z,13.58
2023-04-13T14:10:23.445Z,13.15
2023-04-13T14:12:52.425Z,13.61
2023-04-13T14:15:20.275Z,13.13
2023-04-13T14:17:55.875Z,14.12
2023-04-13T14:20:36.438Z,14.86
2023-04-13T14:23:06.434Z,15.26
2023-04-13T14:25:34.170Z,14.07
2023-04-13T14:28:03.773Z,14.76
2023-04-13T14:30:33.531Z,15.09
2023-04-13T14:33:01.284Z,14.10
2023-04-13T14:35:29.265Z,15.21
2023-04-13T14:37:57.055Z,15.26
2023-04-13T14:40:25.750Z,15.05
2023-04-13T14:42:53.923Z,14.72
2023-04-13T14:45:25.267Z,15.90
2023-04-13T14:47:53.036Z,15.33
2023-04-13T14:50:22.147Z,13.89
2023-04-13T14:52:49.804Z,14.54
2023-04-13T14:55:17.646Z,14.09
2023-04-13T14:57:45.284Z,14.83
2023-04-13T15:00:14.069Z,14.99
2023-04-13T15:02:43.303Z,13.74
2023-04-13T15:05:12.610Z,13.95
2023-04-13T15:07:40.257Z,15.25
2023-04-13T15:10:11.879Z,14.79
2023-04-13T15:12:41.144Z,12.53
2023-04-13T15:15:10.052Z,12.05
2023-04-13T15:17:37.660Z,11.49
2023-04-13T15:20:09.040Z,12.56
2023-04-13T15:22:36.622Z,12.23
2023-04-13T15:25:05.494Z,12.39
2023-04-13T15:27:33.266Z,11.02
2023-04-13T15:30:01.025Z,10.18
2023-04-13T15:32:29.398Z,10.66
2023-04-13T15:34:57.114Z,11.80
2023-04-13T15:37:26.263Z,11.25
2023-04-13T15:39:54.687Z,11.90
2023-04-13T15:42:22.370Z,11.69
2023-04-13T15:44:50.206Z,11.10
2023-04-13T15:47:17.893Z,10.10
2023-04-13T15:49:45.468Z,10.61
2023-04-13T15:52:14.077Z,10.83
2023-04-13T15:54:43.217Z,11.95
2023-04-13T15:57:11.005Z,11.87
2023-04-13T15:59:38.635Z,11.87
2023-04-13T16:02:07.545Z,11.02
2023-04-13T16:04:35.765Z,11.19
2023-04-13T16:07:12.866Z,11.27
2023-04-13T16:09:44.619Z,10.64
2023-04-13T16:12:12.719Z,10.99
2023-04-13T16:14:40.486Z,11.70
2023-04-13T16:17:08.718Z,10.88
2023-04-13T16:19:37.590Z,11.15
2023-04-13T16:22:05.972Z,10.85
2023-04-13T16:24:34.549Z,12.06
2023-04-13T16:27:05.210Z,10.84
2023-04-13T16:29:33.073Z,11.86
2023-04-13T16:32:00.930Z,12.11
2023-04-13T16:34:29.623Z,10.76
2023-04-13T16:36:57.286Z,9.73
2023-04-13T16:39:24.953Z,9.50
2023-04-13T16:41:52.632Z,9.13
2023-04-13T16:44:21.675Z,9.33
2023-04-13T16:46:51.682Z,9.18
2023-04-13T16:49:21.791Z,9.24
2023-04-13T16:51:49.741Z,9.15
2023-04-13T16:54:20.275Z,9.41
2023-04-13T16:56:47.881Z,9.24
2023-04-13T16:59:15.452Z,8.86
2023-04-13T17:01:44.571Z,9.47
2023-04-13T17:04:12.301Z,8.91
2023-04-13T17:06:40.047Z,8.89
2023-04-13T17:09:07.932Z,9.01
2023-04-13T17:11:35.654Z,9.03
2023-04-13T17:14:03.259Z,9.78
2023-04-13T17:16:31.147Z,10.66
2023-04-13T17:19:00.860Z,10.86
2023-04-13T17:21:28.874Z,10.58
2023-04-13T17:23:56.586Z,10.70
2023-04-13T17:26:24.163Z,10.64
2023-04-13T17:28:51.843Z,10.31
2023-04-13T17:31:19.697Z,10.27
2023-04-13T17:33:49.467Z,10.30
2023-04-13T17:36:22.096Z,10.43
2023-04-13T17:38:49.721Z,10.68
2023-04-13T17:41:17.527Z,10.14
2023-04-13T17:43:45.152Z,10.39
2023-04-13T17:46:12.791Z,10.54
2023-04-13T17:48:40.429Z,10.54
2023-04-13T17:51:11.051Z,10.55
2023-04-13T17:53:40.368Z,10.34
2023-04-13T17:56:14.401Z,10.41
2023-04-13T17:58:42.147Z,10.48
2023-04-13T18:01:11.218Z,10.93
2023-04-13T18:03:39.100Z,10.85
2023-04-13T18:06:07.259Z,9.36
2023-04-13T18:08:34.903Z,9.74
2023-04-13T18:11:04.014Z,10.37
2023-04-13T18:13:31.746Z,10.79
2023-04-13T18:16:00.098Z,10.66
2023-04-13T18:18:27.744Z,10.63
2023-04-13T18:20:55.403Z,10.73
2023-04-13T18:23:24.100Z,11.13
2023-04-13T18:25:52.317Z,11.25
2023-04-13T18:28:21.464Z,11.38
2023-04-13T18:30:49.102Z,11.55
2023-04-13T18:33:17.023Z,11.44
2023-04-13T18:35:46.408Z,11.59
2023-04-13T18:38:14.029Z,11.14
2023-04-13T18:40:41.770Z,11.27
2023-04-13T18:43:10.350Z,10.51
2023-04-13T18:45:39.518Z,9.88
2023-04-13T18:48:07.172Z,9.47
2023-04-13T18:50:35.679Z,8.90
2023-04-13T18:53:03.770Z,8.81
2023-04-13T18:55:31.706Z,8.86
2023-04-13T18:57:59.371Z,9.37
2023-04-13T19:00:26.970Z,9.49
2023-04-13T19:02:56.312Z,9.07
2023-04-13T19:05:24.388Z,9.15
2023-04-13T19:07:56.714Z,8.67
2023-04-13T19:10:26.619Z,9.37
2023-04-13T19:12:55.275Z,9.14
2023-04-13T19:15:23.354Z,9.11
2023-04-13T19:17:51.264Z,9.23
2023-04-13T19:20:23.355Z,9.29
2023-04-13T19:22:52.439Z,9.39
2023-04-13T19:25:20.312Z,8.86
2023-04-13T19:27:49.223Z,8.47
2023-04-13T19:30:18.050Z,7.59
2023-04-13T19:32:47.804Z,7.37
2023-04-13T19:35:15.688Z,7.47
2023-04-13T19:37:46.088Z,7.75
2023-04-13T19:40:14.460Z,7.66
2023-04-13T19:42:43.357Z,7.69
2023-04-13T19:45:13.321Z,7.76
2023-04-13T19:47:41.186Z,7.54
2023-04-13T19:50:11.595Z,7.42
2023-04-13T19:52:40.754Z,7.60
2023-04-13T19:55:11.178Z,7.37
2023-04-13T19:57:39.765Z,7.14
2023-04-13T20:00:09.972Z,7.43
2023-04-13T20:02:37.756Z,7.50
2023-04-13T20:05:06.382Z,7.11
2023-04-13T20:07:34.214Z,7.32
2023-04-13T20:10:02.140Z,7.23
2023-04-13T20:12:33.460Z,7.20
2023-04-13T20:15:01.247Z,7.10
2023-04-13T20:17:28.980Z,7.30
2023-04-13T20:19:57.077Z,7.33
2023-04-13T20:22:24.853Z,6.96
2023-04-13T20:24:52.535Z,6.92
2023-04-13T20:27:20.458Z,6.97
2023-04-13T20:29:51.381Z,6.89
2023-04-13T20:32:20.446Z,6.95
2023-04-13T20:34:48.275Z,6.92
2023-04-13T20:37:17.246Z,6.99
2023-04-13T20:39:45.257Z,6.88
2023-04-13T20:42:12.853Z,6.85
2023-04-13T20:44:40.424Z,6.95
2023-04-13T20:47:09.412Z,6.91
2023-04-13T20:49:39.076Z,6.98
2023-04-13T20:52:06.728Z,6.98
2023-04-13T20:54:34.375Z,6.98
2023-04-13T20:57:02.088Z,7.02
2023-04-13T20:59:29.760Z,7.05
2023-04-13T21:01:58.840Z,7.03
2023-04-13T21:04:29.718Z,7.05
2023-04-13T21:06:58.516Z,6.87
2023-04-13T21:09:26.844Z,6.79
2023-04-13T21:11:55.104Z,6.79
2023-04-13T21:14:23.005Z,6.84
2023-04-13T21:16:50.902Z,6.81
2023-04-13T21:19:18.889Z,6.80
2023-04-13T21:21:49.116Z,6.74
2023-04-13T21:24:17.311Z,6.71
2023-04-13T21:26:45.009Z,6.74
2023-04-13T21:29:15.966Z,6.83
2023-04-13T21:31:43.574Z,6.89
2023-04-13T21:34:11.356Z,7.55
2023-04-13T21:39:12.918Z,7.90
2023-04-13T21:41:40.940Z,7.66
2023-04-13T21:44:16.139Z,7.53
2023-04-13T21:46:53.992Z,7.46
2023-04-13T21:49:21.642Z,7.50
2023-04-13T21:51:49.260Z,7.57
2023-04-13T21:54:18.206Z,7.41
2023-04-13T21:56:45.888Z,7.16
2023-04-13T21:59:13.478Z,7.01
2023-04-13T22:01:41.670Z,6.94
2023-04-13T22:04:09.705Z,6.95
2023-04-13T22:06:39.736Z,7.03
2023-04-13T22:09:07.355Z,7.07
2023-04-13T22:11:36.398Z,7.16
2023-04-13T22:14:04.085Z,7.54
2023-04-13T22:16:31.958Z,8.29
2023-04-13T22:18:59.788Z,7.93
2023-04-13T22:21:27.555Z,7.54
2023-04-13T22:23:55.223Z,7.31
2023-04-13T22:26:22.911Z,7.72
2023-04-13T22:28:52.055Z,7.91
2023-04-13T22:31:19.987Z,8.05
2023-04-13T22:33:47.953Z,8.13
2023-04-13T22:36:17.087Z,8.00
2023-04-13T22:38:44.652Z,7.74
2023-04-13T22:41:13.532Z,7.63
2023-04-13T22:43:41.379Z,7.93
2023-04-13T22:46:10.848Z,8.45
2023-04-13T22:48:38.821Z,8.69
2023-04-13T22:51:06.458Z,8.30
2023-04-13T22:53:34.275Z,8.11
2023-04-13T22:56:01.828Z,7.96
2023-04-13T22:58:29.397Z,8.13
2023-04-13T23:00:56.998Z,8.01
2023-04-13T23:03:26.222Z,7.90
2023-04-13T23:05:54.196Z,7.82
2023-04-13T23:08:21.796Z,7.85
2023-04-13T23:10:49.421Z,7.89
2023-04-13T23:13:17.011Z,7.90
2023-04-13T23:15:44.640Z,7.93
2023-04-13T23:18:12.320Z,7.84
2023-04-13T23:20:41.268Z,7.87
2023-04-13T23:23:09.131Z,7.94
2023-04-13T23:25:36.779Z,7.69
2023-04-13T23:28:05.800Z,7.82
2023-04-13T23:30:33.755Z,8.02
2023-04-13T23:33:01.445Z,8.66
2023-04-13T23:35:30.060Z,8.98
2023-04-13T23:37:59.054Z,8.62
2023-04-13T23:40:26.730Z,8.22
2023-04-13T23:42:54.470Z,8.12
2023-04-13T23:45:22.147Z,8.74
2023-04-13T23:47:49.841Z,8.14
2023-04-13T23:50:17.742Z,7.35
2023-04-13T23:52:45.375Z,7.18
2023-04-13T23:55:14.555Z,7.33
2023-04-13T23:57:42.194Z,7.24
